Terminal Aerodrome Forecast
Issued by NWS

Home | Current Version | Previous Version | Text Only | Print | Product List | Glossary On
Versions: 1 2 3 4 5 6 7 8 9 10 11 12 13 14 15 16 17 18 19 20 21 22 23 24 25 26 27 28 29 30 31 32 33 34 35 36
000
FTUS41 KBOX 062334
TAFHYA
TAF
KHYA 062334Z 0700/0724 09010G21KT P6SM VCSH BKN015
     FM070400 08008KT 3SM -DZ BR VCSH OVC008
     FM070600 07007KT 3SM -DZ BR VCSH OVC003
     FM071600 08007KT P6SM BKN008
     FM072000 14006KT P6SM BKN008
     FM072200 18006KT P6SM BKN008=

USA.gov is the U.S. government's official web portal to all federal, state and local government web resources and services.